Adams Basin, New York
Current Conditions -  °F | °C
As of 1:54 AM on Wednesday 22 Oct 2014 (Local Time) from KROC Reporting Station
Overcast Overcast  
Wind Chill: 42°   Ceiling: 1200
Heat Index: 48°   Visibility: 10mi
Dew Point: 44°   Wind: 16mph
Humidity: 86%   Direction: 40°NE
Pressure: 30.09"   Gusts: NA
Location:  43.2°N, 77.85°W
Report Text: KROC 220554Z 04014KT 10SM OVC012 09/07 A3009 RMK AO2 SLP193 60007 T00890067 10089 20083 53004
Loading
Personal Weather Stations






























Interactive Weather Map
Tropical Storm Tracking
New forecast layout! Learn more

10-Day Weather Forecast

Advertisements
Track Severe Weather on mobile